createdAt,value
2019-02-09T00:00:01.066Z,3.27
2019-02-09T00:01:00.980Z,3.27
2019-02-09T00:02:00.900Z,3.29
2019-02-09T00:03:00.819Z,3.34
2019-02-09T00:04:00.727Z,3.31
2019-02-09T00:05:00.648Z,3.34
2019-02-09T00:06:00.568Z,3.39
2019-02-09T00:07:00.484Z,3.32
2019-02-09T00:08:00.402Z,3.41
2019-02-09T00:09:00.323Z,3.32
2019-02-09T00:10:00.240Z,3.37
2019-02-09T00:11:00.153Z,3.29
2019-02-09T00:12:00.069Z,3.29
2019-02-09T00:12:59.984Z,3.28
2019-02-09T00:13:59.902Z,3.27
2019-02-09T00:14:59.817Z,3.16
2019-02-09T00:15:59.735Z,3.21
2019-02-09T00:16:59.658Z,3.16
2019-02-09T00:17:59.568Z,3.16
2019-02-09T00:18:59.487Z,3.14
2019-02-09T00:19:59.405Z,3.17
2019-02-09T00:20:59.314Z,3.09
2019-02-09T00:21:59.243Z,3.16
2019-02-09T00:22:59.153Z,3.11
2019-02-09T00:23:59.078Z,2.99
2019-02-09T00:24:58.983Z,3.07
2019-02-09T00:25:58.905Z,3.03
2019-02-09T00:26:58.825Z,2.96
2019-02-09T00:27:58.739Z,3.03
2019-02-09T00:28:58.656Z,3.11
2019-02-09T00:29:58.568Z,3.17
2019-02-09T00:30:58.481Z,3.14
2019-02-09T00:31:58.406Z,3.14
2019-02-09T00:32:58.326Z,3.21
2019-02-09T00:33:58.237Z,3.13
2019-02-09T00:34:58.156Z,3.16
2019-02-09T00:35:58.072Z,3.14
2019-02-09T00:36:57.982Z,3.17
2019-02-09T00:37:57.905Z,3.14
2019-02-09T00:38:57.823Z,3.21
2019-02-09T00:39:57.739Z,3.27
2019-02-09T00:40:57.670Z,3.13
2019-02-09T00:41:57.572Z,3.11
2019-02-09T00:42:57.496Z,3.11
2019-02-09T00:43:57.406Z,3.16
2019-02-09T00:44:57.441Z,3.09
2019-02-09T00:45:57.239Z,3.09
2019-02-09T00:46:57.156Z,2.95
2019-02-09T00:47:57.071Z,2.89
2019-02-09T00:48:56.989Z,2.99
2019-02-09T00:49:56.903Z,2.95
2019-02-09T00:50:56.822Z,2.95
2019-02-09T00:51:56.741Z,2.93
2019-02-09T00:52:56.657Z,2.84
2019-02-09T00:53:56.575Z,2.99
2019-02-09T00:54:56.497Z,2.96
2019-02-09T00:55:56.408Z,3.03
2019-02-09T00:56:56.317Z,2.98
2019-02-09T00:57:56.239Z,3.03
2019-02-09T00:58:56.156Z,2.98
2019-02-09T00:59:56.081Z,3.01
2019-02-09T01:00:55.988Z,2.93
2019-02-09T01:01:55.899Z,2.88
2019-02-09T01:02:55.823Z,2.86
2019-02-09T01:03:55.744Z,2.85
2019-02-09T01:04:55.664Z,2.89
2019-02-09T01:05:55.574Z,2.88
2019-02-09T01:06:55.490Z,2.91
2019-02-09T01:07:55.408Z,2.88
2019-02-09T01:08:55.326Z,2.81
2019-02-09T01:09:55.235Z,2.86
2019-02-09T01:10:55.159Z,2.81
2019-02-09T01:11:55.077Z,2.77
2019-02-09T01:12:54.999Z,2.85
2019-02-09T01:13:54.907Z,2.78
2019-02-09T01:14:54.820Z,2.71
2019-02-09T01:15:54.742Z,2.81
2019-02-09T01:16:54.654Z,2.73
2019-02-09T01:17:54.577Z,2.80
2019-02-09T01:18:54.491Z,2.74
2019-02-09T01:19:54.412Z,2.80
2019-02-09T01:20:54.323Z,2.85
2019-02-09T01:21:54.247Z,2.78
2019-02-09T01:22:54.158Z,2.74
2019-02-09T01:23:54.075Z,2.78
2019-02-09T01:24:53.990Z,2.77
2019-02-09T01:25:53.908Z,2.84
2019-02-09T01:26:53.826Z,2.78
2019-02-09T01:27:53.752Z,2.78
2019-02-09T01:28:53.655Z,2.85
2019-02-09T01:29:53.576Z,2.88
2019-02-09T01:30:53.491Z,2.88
2019-02-09T01:31:53.406Z,2.85
2019-02-09T01:32:53.331Z,2.86
2019-02-09T01:33:53.243Z,2.89
2019-02-09T01:34:53.157Z,2.81
2019-02-09T01:35:53.129Z,2.84
2019-02-09T01:36:52.990Z,2.91
2019-02-09T01:37:52.908Z,3.01
2019-02-09T01:38:52.824Z,2.96
2019-02-09T01:39:52.739Z,2.89
2019-02-09T01:40:52.657Z,2.89
2019-02-09T01:41:52.574Z,2.81
2019-02-09T01:42:52.495Z,2.96
2019-02-09T01:43:52.410Z,2.81
2019-02-09T01:44:52.322Z,2.89
2019-02-09T01:45:52.240Z,2.88
2019-02-09T01:46:52.159Z,2.88
2019-02-09T01:47:52.074Z,2.89
2019-02-09T01:48:52.009Z,2.77
2019-02-09T01:49:51.911Z,2.66
2019-02-09T01:50:51.823Z,2.49
2019-02-09T01:51:51.745Z,2.53
2019-02-09T01:52:51.659Z,2.49
2019-02-09T01:53:51.575Z,2.44
2019-02-09T01:54:51.491Z,2.32
2019-02-09T01:55:51.407Z,2.37
2019-02-09T01:56:51.324Z,2.38
2019-02-09T01:57:51.243Z,2.31
2019-02-09T01:58:51.159Z,2.30
2019-02-09T01:59:51.077Z,2.26
2019-02-09T02:00:50.994Z,2.21
2019-02-09T02:01:50.910Z,2.17
2019-02-09T02:02:50.827Z,2.13
2019-02-09T02:03:50.752Z,2.10
2019-02-09T02:04:50.659Z,2.05
2019-02-09T02:05:50.576Z,2.12
2019-02-09T02:06:50.491Z,2.02
2019-02-09T02:07:50.411Z,1.95
2019-02-09T02:08:50.326Z,1.87
2019-02-09T02:09:50.241Z,1.86
2019-02-09T02:10:50.160Z,1.74
2019-02-09T02:11:50.074Z,1.65
2019-02-09T02:12:49.996Z,1.73
2019-02-09T02:13:49.907Z,1.74
2019-02-09T02:14:49.825Z,1.68
2019-02-09T02:15:49.743Z,1.65
2019-02-09T02:16:49.655Z,1.62
2019-02-09T02:17:49.572Z,1.62
2019-02-09T02:18:49.493Z,1.44
2019-02-09T02:19:49.405Z,1.40
2019-02-09T02:20:49.323Z,1.28
2019-02-09T02:21:49.260Z,1.20
2019-02-09T02:22:49.154Z,1.18
2019-02-09T02:23:49.073Z,1.23
2019-02-09T02:24:48.990Z,1.16
2019-02-09T02:25:48.908Z,1.15
2019-02-09T02:26:48.822Z,1.19
2019-02-09T02:27:48.739Z,1.23
2019-02-09T02:28:48.655Z,1.05
2019-02-09T02:29:48.573Z,1.23
2019-02-09T02:30:48.490Z,1.15
2019-02-09T02:31:48.404Z,1.16
2019-02-09T02:32:48.321Z,1.23
2019-02-09T02:33:48.245Z,1.22
2019-02-09T02:34:48.151Z,1.19
2019-02-09T02:35:48.071Z,1.23
2019-02-09T02:36:47.984Z,1.23
2019-02-09T02:37:47.901Z,1.28
2019-02-09T02:38:47.812Z,1.22
2019-02-09T02:39:47.730Z,1.20
2019-02-09T02:40:47.648Z,1.22
2019-02-09T02:41:47.572Z,1.16
2019-02-09T02:42:47.478Z,1.25
2019-02-09T02:43:47.401Z,1.16
2019-02-09T02:44:47.317Z,1.28
2019-02-09T02:45:47.231Z,1.32
2019-02-09T02:46:47.148Z,1.36
2019-02-09T02:47:47.074Z,1.40
2019-02-09T02:48:46.989Z,1.48
2019-02-09T02:49:46.898Z,1.54
2019-02-09T02:50:46.812Z,1.54
2019-02-09T02:51:46.729Z,1.62
2019-02-09T02:52:46.648Z,1.61
2019-02-09T02:53:46.574Z,1.61
2019-02-09T02:54:46.477Z,1.69
2019-02-09T02:55:46.394Z,1.74
2019-02-09T02:56:46.309Z,1.82
2019-02-09T02:57:46.236Z,1.86
2019-02-09T02:58:46.142Z,2.02
2019-02-09T02:59:46.056Z,2.06
2019-02-09T03:00:45.988Z,2.12
2019-02-09T03:01:45.890Z,2.16
2019-02-09T03:02:45.808Z,2.17
2019-02-09T03:03:45.720Z,2.17
2019-02-09T03:04:45.640Z,2.28
2019-02-09T03:05:45.552Z,2.31
2019-02-09T03:06:45.475Z,2.26
2019-02-09T03:07:45.386Z,2.24
2019-02-09T03:08:45.303Z,2.32
2019-02-09T03:09:45.217Z,2.37
2019-02-09T03:10:45.135Z,2.39
2019-02-09T03:11:45.051Z,2.39
2019-02-09T03:12:44.972Z,2.49
2019-02-09T03:13:44.883Z,2.52
2019-02-09T03:14:44.803Z,2.57
2019-02-09T03:15:44.719Z,2.57
2019-02-09T03:16:44.626Z,2.55
2019-02-09T03:17:44.560Z,2.59
2019-02-09T03:18:44.475Z,2.49
2019-02-09T03:19:44.383Z,2.62
2019-02-09T03:20:44.302Z,2.63
2019-02-09T03:21:44.217Z,2.70
2019-02-09T03:22:44.131Z,2.66
2019-02-09T03:23:44.048Z,2.70
2019-02-09T03:24:43.965Z,2.74
2019-02-09T03:25:43.895Z,2.81
2019-02-09T03:26:43.800Z,2.86
2019-02-09T03:27:43.714Z,2.78
2019-02-09T03:28:43.626Z,2.77
2019-02-09T03:29:43.542Z,2.85
2019-02-09T03:30:47.884Z,2.81
2019-02-09T03:31:43.382Z,2.93
2019-02-09T03:32:43.290Z,2.88
2019-02-09T03:33:43.305Z,2.91
2019-02-09T03:34:43.128Z,2.95
2019-02-09T03:35:43.041Z,2.96
2019-02-09T03:36:42.961Z,2.96
2019-02-09T03:37:42.875Z,2.98
2019-02-09T03:38:42.790Z,2.96
2019-02-09T03:39:42.710Z,3.03
2019-02-09T03:40:42.623Z,3.03
2019-02-09T03:41:42.542Z,3.10
2019-02-09T03:42:42.458Z,3.13
2019-02-09T03:43:42.377Z,3.17
2019-02-09T03:44:42.289Z,3.14
2019-02-09T03:45:42.203Z,3.21
2019-02-09T03:46:42.131Z,3.32
2019-02-09T03:47:42.051Z,3.31
2019-02-09T03:48:41.955Z,3.22
2019-02-09T03:49:41.868Z,3.14
2019-02-09T03:50:41.790Z,3.29
2019-02-09T03:51:41.708Z,3.28
2019-02-09T03:52:41.618Z,3.37
2019-02-09T03:53:41.537Z,3.32
2019-02-09T03:54:41.451Z,3.39
2019-02-09T03:55:41.373Z,3.39
2019-02-09T03:56:41.297Z,3.46
2019-02-09T03:57:41.198Z,3.48
2019-02-09T03:58:41.121Z,3.47
2019-02-09T03:59:41.041Z,3.37
2019-02-09T04:00:40.955Z,3.44
2019-02-09T04:01:40.869Z,3.31
2019-02-09T04:02:40.799Z,3.34
2019-02-09T04:03:40.704Z,3.46
2019-02-09T04:04:40.617Z,3.46
2019-02-09T04:05:40.538Z,3.56
2019-02-09T04:06:40.454Z,3.64
2019-02-09T04:07:40.368Z,3.66
2019-02-09T04:08:40.283Z,3.65
2019-02-09T04:09:40.202Z,3.65
2019-02-09T04:10:40.133Z,3.62
2019-02-09T04:11:40.040Z,3.57
2019-02-09T04:12:39.953Z,3.65
2019-02-09T04:13:39.872Z,3.53
2019-02-09T04:14:39.794Z,3.68
2019-02-09T04:15:39.698Z,3.61
2019-02-09T04:16:39.616Z,3.54
2019-02-09T04:17:39.532Z,3.57
2019-02-09T04:18:39.452Z,3.56
2019-02-09T04:19:39.370Z,3.56
2019-02-09T04:20:39.288Z,3.54
2019-02-09T04:21:39.199Z,3.51
2019-02-09T04:22:39.120Z,3.43
2019-02-09T04:23:39.036Z,3.32
2019-02-09T04:24:38.957Z,3.43
2019-02-09T04:25:38.872Z,3.50
2019-02-09T04:26:38.788Z,3.39
2019-02-09T04:27:38.707Z,3.51
2019-02-09T04:28:38.619Z,3.53
2019-02-09T04:29:38.540Z,3.50
2019-02-09T04:30:38.450Z,3.61
2019-02-09T04:31:38.375Z,3.62
2019-02-09T04:32:38.287Z,3.65
2019-02-09T04:33:38.204Z,3.65
2019-02-09T04:34:38.124Z,3.59
2019-02-09T04:35:38.038Z,3.59
2019-02-09T04:36:37.956Z,3.50
2019-02-09T04:37:37.875Z,3.48
2019-02-09T04:38:37.792Z,3.64
2019-02-09T04:39:37.708Z,3.65
2019-02-09T04:40:37.623Z,3.72
2019-02-09T04:41:37.551Z,3.68
2019-02-09T04:42:37.459Z,3.71
2019-02-09T04:43:37.421Z,3.82
2019-02-09T04:44:37.291Z,3.82
2019-02-09T04:45:37.208Z,3.89
2019-02-09T04:46:37.122Z,3.90
2019-02-09T04:47:37.044Z,3.94
2019-02-09T04:48:36.973Z,3.90
2019-02-09T04:49:36.881Z,3.92
2019-02-09T04:50:36.793Z,3.98
2019-02-09T04:51:36.712Z,3.90
2019-02-09T04:52:36.625Z,3.89
2019-02-09T04:53:36.542Z,3.87
2019-02-09T04:54:36.460Z,4.08
2019-02-09T04:55:36.378Z,4.07
2019-02-09T04:56:36.295Z,4.07
2019-02-09T04:57:36.205Z,4.04
2019-02-09T04:58:36.128Z,4.00
2019-02-09T04:59:36.045Z,4.04
2019-02-09T05:00:35.962Z,4.05
2019-02-09T05:01:35.886Z,4.07
2019-02-09T05:02:35.798Z,4.12
2019-02-09T05:03:35.717Z,4.08
2019-02-09T05:04:35.634Z,4.08
2019-02-09T05:05:35.547Z,4.10
2019-02-09T05:06:35.465Z,4.07
2019-02-09T05:07:35.382Z,4.19
2019-02-09T05:08:35.297Z,4.11
2019-02-09T05:09:35.214Z,4.12
2019-02-09T05:10:35.133Z,4.10
2019-02-09T05:11:35.050Z,4.20
2019-02-09T05:12:34.973Z,4.12
2019-02-09T05:13:34.881Z,4.20
2019-02-09T05:14:34.810Z,4.25
2019-02-09T05:15:34.717Z,4.22
2019-02-09T05:16:34.630Z,4.32
2019-02-09T05:17:34.553Z,4.37
2019-02-09T05:18:34.471Z,4.48
2019-02-09T05:19:34.379Z,4.47
2019-02-09T05:20:34.306Z,4.55
2019-02-09T05:21:34.220Z,4.52
2019-02-09T05:22:34.143Z,4.56
2019-02-09T05:23:34.054Z,4.56
2019-02-09T05:24:33.974Z,4.56
2019-02-09T05:25:33.890Z,4.61
2019-02-09T05:26:33.810Z,4.64
2019-02-09T05:27:33.725Z,4.68
2019-02-09T05:28:33.641Z,4.69
2019-02-09T05:29:33.556Z,4.73
2019-02-09T05:30:33.476Z,4.73
2019-02-09T05:31:33.406Z,4.87
2019-02-09T05:32:33.310Z,4.85
2019-02-09T05:33:33.228Z,4.88
2019-02-09T05:34:33.145Z,4.91
2019-02-09T05:35:33.073Z,4.96
2019-02-09T05:36:32.981Z,4.88
2019-02-09T05:37:32.895Z,4.87
2019-02-09T05:38:32.816Z,4.88
2019-02-09T05:39:33.865Z,4.92
2019-02-09T05:40:32.646Z,4.96
2019-02-09T05:41:32.573Z,4.99
2019-02-09T05:42:32.484Z,4.95
2019-02-09T05:43:32.405Z,4.99
2019-02-09T05:44:32.314Z,5.00
2019-02-09T05:45:32.236Z,5.02
2019-02-09T05:46:32.154Z,4.99
2019-02-09T05:47:32.071Z,5.02
2019-02-09T05:48:31.990Z,4.99
2019-02-09T05:49:31.905Z,5.03
2019-02-09T05:50:31.825Z,5.05
2019-02-09T05:51:31.739Z,4.98
2019-02-09T05:52:31.660Z,4.99
2019-02-09T05:53:31.582Z,5.02
2019-02-09T05:54:31.496Z,5.05
2019-02-09T05:55:31.413Z,5.00
2019-02-09T05:56:31.331Z,5.00
2019-02-09T05:57:31.242Z,4.98
2019-02-09T05:58:31.162Z,4.98
2019-02-09T05:59:31.078Z,4.98
2019-02-09T06:00:31.046Z,5.00
2019-02-09T06:01:32.565Z,5.00
2019-02-09T06:02:30.851Z,4.99
2019-02-09T06:03:30.757Z,4.99
2019-02-09T06:04:30.677Z,5.03
2019-02-09T06:05:30.587Z,4.98
2019-02-09T06:06:30.504Z,5.00
2019-02-09T06:07:30.424Z,4.95
2019-02-09T06:08:30.341Z,5.02
2019-02-09T06:09:30.259Z,4.98
2019-02-09T06:10:30.176Z,4.95
2019-02-09T06:11:30.099Z,5.10
2019-02-09T06:12:30.008Z,5.05
2019-02-09T06:13:29.924Z,5.03
2019-02-09T06:14:29.843Z,5.00
2019-02-09T06:15:29.756Z,5.00
2019-02-09T06:16:30.867Z,5.03
2019-02-09T06:17:29.597Z,5.02
2019-02-09T06:18:29.516Z,5.02
2019-02-09T06:19:29.439Z,4.95
2019-02-09T06:20:29.350Z,5.08
2019-02-09T06:21:29.268Z,5.13
2019-02-09T06:22:29.184Z,5.14
2019-02-09T06:23:29.104Z,5.11
2019-02-09T06:24:29.023Z,5.21
2019-02-09T06:25:29.016Z,5.28
2019-02-09T06:26:28.869Z,5.17
2019-02-09T06:27:28.774Z,5.17
2019-02-09T06:28:28.690Z,5.26
2019-02-09T06:29:28.608Z,5.29
2019-02-09T06:30:28.527Z,5.23
2019-02-09T06:31:28.445Z,5.24
2019-02-09T06:32:28.363Z,5.44
2019-02-09T06:33:28.284Z,5.36
2019-02-09T06:34:28.202Z,5.38
2019-02-09T06:35:28.113Z,5.49
2019-02-09T06:36:28.032Z,5.39
2019-02-09T06:37:27.951Z,5.50
2019-02-09T06:38:27.870Z,5.41
2019-02-09T06:39:27.787Z,5.42
2019-02-09T06:40:27.704Z,5.39
2019-02-09T06:41:27.626Z,5.38
2019-02-09T06:42:27.537Z,5.50
2019-02-09T06:43:27.458Z,5.56
2019-02-09T06:44:27.381Z,5.54
2019-02-09T06:45:27.292Z,5.52
2019-02-09T06:46:27.212Z,5.56
2019-02-09T06:47:27.127Z,5.65
2019-02-09T06:48:27.049Z,5.60
2019-02-09T06:49:26.966Z,5.50
2019-02-09T06:50:26.880Z,5.62
2019-02-09T06:51:26.799Z,5.53
2019-02-09T06:52:26.713Z,5.56
2019-02-09T06:53:26.634Z,5.57
2019-02-09T06:54:26.553Z,5.57
2019-02-09T06:55:26.473Z,5.45
2019-02-09T06:56:26.404Z,5.57
2019-02-09T06:57:26.301Z,5.57
2019-02-09T06:58:26.224Z,5.54
2019-02-09T06:59:26.143Z,5.54
2019-02-09T07:00:26.052Z,5.57
2019-02-09T07:01:25.996Z,5.59
2019-02-09T07:02:25.901Z,5.54
2019-02-09T07:03:25.816Z,5.56
2019-02-09T07:04:25.733Z,5.54
2019-02-09T07:05:25.649Z,5.50
2019-02-09T07:06:25.572Z,5.54
2019-02-09T07:07:25.484Z,5.54
2019-02-09T07:08:25.402Z,5.50
2019-02-09T07:09:25.321Z,5.53
2019-02-09T07:10:25.236Z,5.56
2019-02-09T07:11:25.157Z,5.56
2019-02-09T07:12:25.075Z,5.59
2019-02-09T07:13:24.991Z,5.62
2019-02-09T07:14:24.904Z,5.67
2019-02-09T07:15:24.825Z,5.68
2019-02-09T07:16:24.751Z,5.72
2019-02-09T07:17:24.664Z,5.62
2019-02-09T07:18:24.575Z,5.67
2019-02-09T07:19:26.091Z,5.68
2019-02-09T07:20:24.418Z,5.81
2019-02-09T07:21:24.350Z,5.86
2019-02-09T07:22:24.253Z,5.88
2019-02-09T07:23:24.171Z,5.95
2019-02-09T07:24:24.090Z,6.10
2019-02-09T07:25:24.008Z,6.04
2019-02-09T07:26:23.928Z,6.07
2019-02-09T07:27:23.843Z,6.06
2019-02-09T07:28:23.761Z,6.15
2019-02-09T07:29:23.682Z,6.15
2019-02-09T07:30:23.597Z,6.18
2019-02-09T07:31:23.515Z,6.18
2019-02-09T07:32:23.436Z,6.17
2019-02-09T07:33:23.360Z,6.13
2019-02-09T07:34:23.276Z,6.14
2019-02-09T07:35:23.188Z,6.27
2019-02-09T07:36:23.110Z,6.27
2019-02-09T07:37:23.043Z,6.32
2019-02-09T07:38:22.942Z,6.26
2019-02-09T07:39:22.863Z,6.22
2019-02-09T07:40:22.781Z,6.11
2019-02-09T07:41:22.700Z,6.17
2019-02-09T07:42:22.617Z,6.03
2019-02-09T07:43:22.535Z,6.06
2019-02-09T07:44:22.462Z,6.18
2019-02-09T07:45:22.369Z,6.10
2019-02-09T07:46:22.293Z,6.00
2019-02-09T07:47:22.206Z,6.06
2019-02-09T07:48:22.124Z,6.03
2019-02-09T07:49:22.044Z,6.13
2019-02-09T07:50:21.961Z,6.11
2019-02-09T07:51:21.878Z,6.07
2019-02-09T07:52:21.796Z,6.21
2019-02-09T07:53:21.715Z,6.24
2019-02-09T07:54:21.635Z,6.33
2019-02-09T07:55:21.554Z,6.22
2019-02-09T07:56:21.473Z,6.17
2019-02-09T07:57:21.389Z,6.30
2019-02-09T07:58:21.314Z,6.26
2019-02-09T07:59:21.227Z,6.18
2019-02-09T08:00:21.145Z,6.24
2019-02-09T08:01:21.064Z,6.26
2019-02-09T08:02:20.982Z,6.30
2019-02-09T08:03:20.904Z,6.36
2019-02-09T08:04:20.819Z,6.33
2019-02-09T08:05:20.738Z,6.33
2019-02-09T08:06:20.649Z,6.37
2019-02-09T08:07:20.579Z,6.36
2019-02-09T08:08:20.492Z,6.39
2019-02-09T08:09:20.408Z,6.37
2019-02-09T08:10:20.334Z,6.45
2019-02-09T08:11:20.249Z,6.44
2019-02-09T08:12:20.163Z,6.34
2019-02-09T08:13:20.086Z,6.36
2019-02-09T08:14:20.006Z,6.47
2019-02-09T08:15:19.924Z,6.41
2019-02-09T08:16:19.844Z,6.45
2019-02-09T08:17:19.761Z,6.45
2019-02-09T08:18:19.679Z,6.45
2019-02-09T08:19:19.596Z,6.50
2019-02-09T08:20:19.515Z,6.54
2019-02-09T08:21:19.433Z,6.60
2019-02-09T08:22:19.353Z,6.54
2019-02-09T08:23:19.273Z,6.63
2019-02-09T08:24:19.191Z,6.50
2019-02-09T08:25:19.111Z,6.52
2019-02-09T08:26:19.019Z,6.55
2019-02-09T08:27:23.604Z,6.62
2019-02-09T08:28:18.862Z,6.62
2019-02-09T08:29:18.784Z,6.60
2019-02-09T08:30:19.275Z,6.62
2019-02-09T08:31:18.621Z,6.70
2019-02-09T08:32:18.532Z,6.68
2019-02-09T08:33:18.456Z,6.69
2019-02-09T08:34:18.384Z,6.68
2019-02-09T08:35:18.294Z,6.68
2019-02-09T08:36:18.212Z,6.63
2019-02-09T08:37:18.131Z,6.63
2019-02-09T08:38:18.050Z,6.65
2019-02-09T08:39:17.970Z,6.68
2019-02-09T08:40:17.888Z,6.66
2019-02-09T08:41:17.804Z,6.62
2019-02-09T08:42:17.721Z,6.69
2019-02-09T08:43:17.645Z,6.78
2019-02-09T08:44:17.555Z,6.96
2019-02-09T08:45:17.480Z,6.96
2019-02-09T08:46:17.396Z,6.99
2019-02-09T08:47:17.318Z,6.96
2019-02-09T08:48:17.236Z,6.90
2019-02-09T08:49:17.158Z,6.94
2019-02-09T08:50:17.074Z,6.91
2019-02-09T08:51:16.991Z,6.94
2019-02-09T08:52:16.912Z,6.87
2019-02-09T08:53:16.827Z,6.90
2019-02-09T08:54:16.748Z,7.12
2019-02-09T08:55:16.669Z,7.30
2019-02-09T08:56:16.587Z,7.39
2019-02-09T08:57:16.506Z,7.53
2019-02-09T08:58:16.427Z,7.55
2019-02-09T08:59:16.343Z,7.48
2019-02-09T09:00:16.265Z,7.55
2019-02-09T09:01:16.192Z,7.45
2019-02-09T09:02:20.613Z,7.44
2019-02-09T09:03:16.024Z,7.42
2019-02-09T09:04:15.942Z,7.45
2019-02-09T09:05:15.864Z,7.42
2019-02-09T09:06:15.781Z,7.37
2019-02-09T09:07:15.699Z,7.30
2019-02-09T09:08:15.617Z,7.31
2019-02-09T09:09:15.539Z,7.37
2019-02-09T09:10:15.459Z,7.37
2019-02-09T09:11:15.376Z,7.30
2019-02-09T09:12:15.298Z,7.31
2019-02-09T09:13:15.215Z,7.47
2019-02-09T09:14:15.133Z,7.29
2019-02-09T09:15:15.056Z,7.27
2019-02-09T09:16:14.972Z,7.27
2019-02-09T09:17:14.888Z,7.27
2019-02-09T09:18:14.810Z,7.35
2019-02-09T09:19:14.728Z,7.20
2019-02-09T09:20:14.648Z,7.20
2019-02-09T09:21:14.568Z,7.29
2019-02-09T09:22:14.489Z,7.31
2019-02-09T09:23:14.405Z,7.19
2019-02-09T09:24:14.344Z,7.29
2019-02-09T09:25:14.249Z,7.27
2019-02-09T09:26:14.169Z,7.39
2019-02-09T09:27:14.077Z,7.42
2019-02-09T09:28:14.003Z,7.62
2019-02-09T09:29:13.920Z,7.79
2019-02-09T09:30:13.839Z,8.07
2019-02-09T09:31:13.761Z,8.21
2019-02-09T09:32:13.679Z,8.21
2019-02-09T09:33:13.602Z,8.39
2019-02-09T09:34:13.519Z,8.43
2019-02-09T09:35:13.438Z,8.58
2019-02-09T09:36:13.357Z,8.57
2019-02-09T09:37:13.277Z,8.77
2019-02-09T09:38:13.197Z,8.82
2019-02-09T09:39:13.126Z,8.97
2019-02-09T09:40:13.044Z,9.25
2019-02-09T09:41:12.956Z,9.35
2019-02-09T09:42:12.876Z,9.40
2019-02-09T09:43:12.796Z,9.67
2019-02-09T09:44:12.717Z,9.83
2019-02-09T09:45:12.637Z,9.89
2019-02-09T09:46:12.554Z,10.07
2019-02-09T09:47:12.477Z,10.15
2019-02-09T09:48:12.392Z,10.25
2019-02-09T09:49:13.943Z,10.46
2019-02-09T09:50:12.240Z,10.41
2019-02-09T09:51:12.168Z,10.40
2019-02-09T09:52:12.075Z,10.56
2019-02-09T09:53:11.999Z,10.60
2019-02-09T09:54:11.916Z,10.80
2019-02-09T09:55:11.837Z,10.88
2019-02-09T09:56:11.761Z,11.08
2019-02-09T09:57:11.684Z,11.08
2019-02-09T09:58:11.604Z,11.18
2019-02-09T09:59:11.518Z,11.38
2019-02-09T10:00:11.436Z,11.56
2019-02-09T10:01:11.363Z,11.42
2019-02-09T10:02:11.295Z,11.35
2019-02-09T10:03:11.207Z,11.31
2019-02-09T10:04:11.121Z,11.17
2019-02-09T10:05:11.053Z,11.28
2019-02-09T10:06:11.013Z,11.32
2019-02-09T10:07:11.013Z,11.28
2019-02-09T10:08:10.826Z,11.05
2019-02-09T10:09:10.733Z,10.99
2019-02-09T10:10:10.669Z,11.00
2019-02-09T10:11:10.573Z,11.13
2019-02-09T10:12:10.542Z,11.13
2019-02-09T10:13:10.418Z,11.26
2019-02-09T10:14:10.340Z,11.23
2019-02-09T10:15:10.315Z,11.26
2019-02-09T10:16:10.178Z,11.39
2019-02-09T10:17:10.101Z,11.46
2019-02-09T10:18:10.032Z,11.61
2019-02-09T10:19:09.944Z,11.64
2019-02-09T10:20:09.887Z,11.69
2019-02-09T10:21:09.782Z,11.75
2019-02-09T10:22:09.714Z,11.72
2019-02-09T10:23:09.635Z,11.94
2019-02-09T10:24:09.569Z,11.75
2019-02-09T10:25:09.578Z,11.98
2019-02-09T10:26:09.406Z,11.97
2019-02-09T10:27:09.331Z,12.05
2019-02-09T10:28:09.237Z,11.81
2019-02-09T10:29:09.162Z,11.81
2019-02-09T10:30:09.101Z,11.86
2019-02-09T10:31:09.000Z,11.93
2019-02-09T10:32:08.928Z,12.00
2019-02-09T10:33:08.850Z,11.94
2019-02-09T10:34:08.773Z,11.90
2019-02-09T10:35:08.694Z,11.97
2019-02-09T10:36:08.614Z,12.09
2019-02-09T10:37:08.534Z,12.12
2019-02-09T10:38:08.461Z,12.11
2019-02-09T10:39:08.394Z,12.09
2019-02-09T10:40:08.301Z,12.18
2019-02-09T10:41:08.228Z,12.18
2019-02-09T10:42:08.150Z,12.28
2019-02-09T10:43:08.064Z,12.31
2019-02-09T10:44:07.991Z,12.31
2019-02-09T10:45:07.911Z,12.26
2019-02-09T10:46:07.838Z,12.39
2019-02-09T10:47:07.758Z,12.46
2019-02-09T10:48:07.686Z,12.52
2019-02-09T10:49:07.600Z,12.45
2019-02-09T10:50:07.525Z,12.61
2019-02-09T10:51:07.444Z,12.48
2019-02-09T10:52:07.367Z,12.44
2019-02-09T10:53:07.292Z,12.46
2019-02-09T10:54:07.211Z,12.49
2019-02-09T10:55:07.132Z,12.44
2019-02-09T10:56:07.056Z,12.56
2019-02-09T10:57:06.984Z,12.61
2019-02-09T10:58:06.903Z,12.69
2019-02-09T10:59:06.819Z,12.70
2019-02-09T11:00:06.741Z,12.53
2019-02-09T11:01:06.675Z,12.52
2019-02-09T11:02:06.593Z,12.60
2019-02-09T11:03:06.508Z,12.61
2019-02-09T11:04:06.437Z,12.60
2019-02-09T11:05:06.356Z,12.64
2019-02-09T11:06:06.285Z,12.42
2019-02-09T11:07:06.209Z,12.33
2019-02-09T11:08:06.124Z,12.42
2019-02-09T11:09:06.045Z,12.37
2019-02-09T11:10:05.970Z,12.26
2019-02-09T11:11:05.905Z,12.44
2019-02-09T11:12:05.815Z,12.30
2019-02-09T11:13:05.739Z,12.21
2019-02-09T11:14:05.661Z,12.09
2019-02-09T11:15:05.584Z,11.97
2019-02-09T11:16:05.506Z,11.94
2019-02-09T11:17:05.427Z,11.81
2019-02-09T11:18:05.354Z,11.67
2019-02-09T11:19:05.272Z,11.68
2019-02-09T11:20:05.195Z,11.59
2019-02-09T11:21:05.127Z,11.65
2019-02-09T11:22:05.039Z,11.56
2019-02-09T11:23:04.973Z,11.50
2019-02-09T11:24:04.886Z,11.50
2019-02-09T11:25:04.802Z,11.51
2019-02-09T11:26:04.730Z,11.42
2019-02-09T11:27:04.653Z,11.38
2019-02-09T11:28:04.572Z,11.38
2019-02-09T11:29:04.494Z,11.32
2019-02-09T11:30:04.418Z,11.13
2019-02-09T11:31:04.337Z,11.18
2019-02-09T11:32:04.266Z,11.03
2019-02-09T11:33:04.757Z,11.10
2019-02-09T11:34:04.103Z,11.10
2019-02-09T11:35:04.028Z,11.08
2019-02-09T11:36:03.950Z,11.14
2019-02-09T11:37:03.870Z,11.13
2019-02-09T11:38:03.794Z,11.05
2019-02-09T11:39:03.759Z,11.10
2019-02-09T11:40:03.636Z,11.13
2019-02-09T11:41:03.560Z,11.14
2019-02-09T11:42:03.481Z,11.10
2019-02-09T11:43:03.400Z,11.06
2019-02-09T11:44:03.327Z,11.06
2019-02-09T11:45:03.249Z,11.06
2019-02-09T11:46:03.170Z,11.13
2019-02-09T11:47:03.127Z,11.13
2019-02-09T11:48:03.012Z,11.28
2019-02-09T11:49:02.936Z,11.28
2019-02-09T11:50:02.857Z,11.39
2019-02-09T11:51:02.806Z,11.38
2019-02-09T11:52:02.700Z,11.51
2019-02-09T11:53:02.626Z,11.50
2019-02-09T11:54:02.543Z,11.56
2019-02-09T11:55:02.471Z,11.64
2019-02-09T11:56:02.387Z,11.60
2019-02-09T11:57:02.309Z,11.67
2019-02-09T11:58:02.234Z,11.71
2019-02-09T11:59:02.157Z,11.74
2019-02-09T12:00:02.068Z,11.74
2019-02-09T12:01:01.995Z,11.81
2019-02-09T12:02:01.916Z,11.67
2019-02-09T12:03:08.422Z,11.72
2019-02-09T12:04:01.767Z,11.54
2019-02-09T12:05:01.685Z,11.49
2019-02-09T12:06:01.609Z,11.53
2019-02-09T12:07:01.532Z,11.47
2019-02-09T12:08:01.454Z,11.47
2019-02-09T12:09:01.377Z,11.43
2019-02-09T12:10:01.295Z,11.34
2019-02-09T12:11:01.217Z,11.36
2019-02-09T12:12:01.142Z,11.34
2019-02-09T12:13:01.064Z,11.34
2019-02-09T12:14:00.983Z,11.38
2019-02-09T12:15:00.909Z,11.32
2019-02-09T12:16:00.824Z,11.32
2019-02-09T12:17:00.747Z,11.17
2019-02-09T12:18:00.671Z,11.14
2019-02-09T12:19:00.628Z,11.13
2019-02-09T12:20:00.515Z,11.08
2019-02-09T12:21:00.432Z,11.13
2019-02-09T12:22:00.361Z,11.13
2019-02-09T12:23:00.282Z,11.06
2019-02-09T12:24:00.197Z,11.13
2019-02-09T12:25:00.286Z,11.05
2019-02-09T12:26:00.050Z,10.99
2019-02-09T12:26:59.970Z,11.00
2019-02-09T12:27:59.910Z,10.96
2019-02-09T12:28:59.813Z,11.00
2019-02-09T12:29:59.729Z,11.06
2019-02-09T12:30:59.718Z,10.99
2019-02-09T12:31:59.583Z,11.00
2019-02-09T12:32:59.500Z,11.00
2019-02-09T12:33:59.421Z,11.11
2019-02-09T12:34:59.350Z,11.05
2019-02-09T12:35:59.266Z,11.03
2019-02-09T12:36:59.200Z,11.00
2019-02-09T12:37:59.109Z,11.02
2019-02-09T12:38:59.028Z,11.00
2019-02-09T12:39:58.956Z,11.02
2019-02-09T12:40:58.874Z,11.06
2019-02-09T12:41:58.798Z,11.06
2019-02-09T12:42:58.718Z,11.10
2019-02-09T12:43:58.643Z,11.18
2019-02-09T12:44:58.567Z,11.18
2019-02-09T12:45:58.484Z,11.24
2019-02-09T12:46:58.419Z,11.29
2019-02-09T12:47:58.333Z,11.35
2019-02-09T12:48:58.251Z,11.26
2019-02-09T12:49:58.169Z,11.24
2019-02-09T12:50:58.096Z,11.31
2019-02-09T12:51:58.009Z,11.28
2019-02-09T12:52:57.941Z,11.35
2019-02-09T12:53:57.853Z,11.41
2019-02-09T12:54:57.785Z,11.35
2019-02-09T12:55:57.711Z,11.46
2019-02-09T12:56:57.627Z,11.50
2019-02-09T12:57:57.549Z,11.43
2019-02-09T12:58:57.503Z,11.42
2019-02-09T12:59:57.385Z,11.42
2019-02-09T13:00:57.308Z,11.46
2019-02-09T13:01:57.234Z,11.39
2019-02-09T13:02:57.156Z,11.49
2019-02-09T13:03:57.080Z,11.53
2019-02-09T13:04:56.998Z,11.47
2019-02-09T13:05:56.922Z,11.51
2019-02-09T13:06:56.844Z,11.50
2019-02-09T13:07:56.767Z,11.42
2019-02-09T13:08:56.688Z,11.42
2019-02-09T13:09:56.615Z,11.53